Standard, Canada
Current Conditions -  °F | °C
As of 10:00 PM on Tuesday 21 Oct 2014 (Local Time) from CYYC Reporting Station
Few Clouds Few Clouds  
Wind Chill: 46°   Ceiling: Unl
Heat Index: 46°   Visibility: 15mi
Dew Point: 27°   Wind: 3mph
Humidity: 46%   Direction: NA
Pressure: 29.75"   Gusts: NA
Location:  51.12°N, 112.98°W
Report Text: CYYC 220400Z VRB03KT 15SM FEW240 08/M03 A2975 RMK CI1 CI TR SLP093 DENSITY ALT 3700FT
Loading
Personal Weather Stations






























Interactive Weather Map
Tropical Storm Tracking
New forecast layout! Learn more

10-Day Weather Forecast

Advertisements
Track Severe Weather on mobile